AirNav   Bose Proflight Series 2 Wireless Aviation Headset
 
 482 users online  

5GA
(formerly 30GA)
Elliott Field Airport
Dawsonville, Georgia, USA

GOING TO DAWSONVILLE?


FAA INFORMATION EFFECTIVE 07 NOVEMBER 2019

Location

FAA Identifier: 5GA
Lat/Long: 34-27-30.3050N 084-10-49.3350W
34-27.505083N 084-10.822250W
34.4584181,-84.1803708
(estimated)
Elevation: 1497 ft. / 456 m (estimated)
Variation: 02W (1985)
From city: 4 miles NW of DAWSONVILLE, GA
Time zone: UTC -5 (UTC -4 during Daylight Saving Time)
Zip code: 30534

Airport Operations

Airport use: Open to the public
Activation date: 10/1985
Control tower: no
ARTCC: ATLANTA CENTER
FSS: MACON FLIGHT SERVICE STATION
NOTAMs facility: MCN (NOTAM-D service available)
Attendance: UNATNDD
Wind indicator: yes
Segmented circle: no

Airport Communications

CTAF: 122.9
WX AWOS-3PT at JZP (14 nm W): 118.55 ((706) 253-9008)
WX AWOS-3 at CNI (15 nm SW): 119.825 (770-704-6235)
WX AWOS-3 at 49A (20 nm NW): 118.075 (706 276-4513)

Nearby radio navigation aids

VOR radial/distance  VOR name  Freq  Var
HRSr204/31.9HARRIS VORTAC109.8000E
PDKr015/35.5PEACHTREE VOR/DME116.6005W

 
NDB name  Hdg/Dist  Freq  Var  ID
CHERO056/19.641505WDJD -.. .--- -..
FLOWERY BRANCH321/20.536503WFKV ..-. -.- ...-
CARTERSVILLE069/36.330804WEVZ . ...- --..

Airport Services

Fuel available: 100LL JET-A
Parking: tiedowns
Airframe service: NONE
Powerplant service: NONE
Bottled oxygen: NONE
Bulk oxygen: NONE

Runway Information

Runway 14/32

Dimensions: 5619 x 40 ft. / 1713 x 12 m
Surface: asphalt, in poor condition
FAILED PAVEMENT AREAS ALG SW EDGE.
RUNWAY 14  RUNWAY 32
Latitude: 34-27.824500N34-27.185667N
Longitude: 084-11.227333W084-10.417167W
Elevation: 1480.0 ft.1497.0 ft.
Traffic pattern: leftleft
Markings: nonenone
Obstructions: 40 ft. trees, 201 ft. from runway, 87 ft. left of centerline
ROAD LCTD ACRS APCH AS CLOSE AS 15 FT FM END OF RWY, 200 FT R; TREES 38 FT TALL, 146 FT FM END OF RWY, 87 FT L; TREES 32 FT TALL, 101 FT FM END OF RWY, 192 FT R.
15 ft. trees, 201 ft. from runway, 123 ft. left of centerline
TREES LCTD AS CLOSE AS 130 FT FM END OF RWY, 160' L; TREES 15 FT TALL FM RWY END TO 200 FT FM END OF RWY, 114 FT L.

Airport Ownership and Management from official FAA records

Ownership: Privately-owned
Owner: BILL ELLIOTT
415 HIGHWAY 53 EAST, SUITE 100
DAWSONVILLE, GA 30534
Phone (706) 265-3256
Manager: CITY OF DAWSONVILLE
415 HIGHWAY 53 EAST, SUITE 100
DAWSONVILLE, GA 30534
Phone (706) 265-3256

Airport Operational Statistics

Aircraft based on the field: 15
Single engine airplanes: 6
Multi engine airplanes: 3
Jet airplanes: 5
Helicopters: 1
    
Aircraft operations: avg 42/month *
100% local general aviation
* for 12-month period ending 01 August 2018

Additional Remarks

RWY GRADE CHG GTR THAN 2% SLP ON RWY 32 APCH END.
FOR CD CTC ATLANTA ARTCC AT 770-210-7692.

Instrument Procedures

There are no published instrument procedures at 5GA.

Some nearby airports with instrument procedures:

KJZP - Pickens County Airport (14 nm W)
KCNI - Cherokee County Airport (15 nm SW)
49A - Gilmer County Airport (20 nm NW)
KGVL - Lee Gilmer Memorial Airport (21 nm SE)
KDZJ - Blairsville Airport (25 nm N)
 
Loc | Ops | Rwys | IFR | FBO | Links
Com | Nav | Svcs | Stats | Notes
Area around 5GA (Elliott Field Airport)
 
Road maps at: MapQuest Bing Google
 
Aerial photo
No photo
 
Sectional chart

 
Airport distance calculator
Flying to Elliott Field Airport? Find the distance to fly.

From to 5GA

Sunrise and sunset
Times for 15-Nov-2019
 Local
(UTC-5)
 Zulu
(UTC)
Morning civil twilight06:4411:44
Sunrise07:1112:11
Sunset17:3222:32
Evening civil twilight17:5822:58

Current date and time
Zulu (UTC)  15-Nov-2019 05:05:50
Local (UTC-5)  15-Nov-2019 00:05:50
 
METAR
KJZP 
14nm W 
150455Z AUTO 00000KT 1 3/4SM RA OVC049 05/05 A3026 RMK AO2 VIS 1V3 T00460045
KCNI 
15nm SW 
150430Z AUTO 00000KT 2 1/2SM -RA BKN041 OVC047 05/05 A3026 RMK AO2
K49A 
20nm NW 
150455Z AUTO 01003KT 10SM -RA BKN050 OVC060 05/04 A3027 RMK AO2 T00530043
KGVL 
21nm SE 
150453Z AUTO 07004KT 5SM -RA BR BKN021 BKN034 OVC050 04/04 A3025 RMK AO2 SLP246 P0004 T00390039 400561011
KDZJ 
25nm N 
150455Z AUTO 34003KT 7SM -RA OVC070 05/05 A3024 RMK AO2 P0002 T00480045
TAF
KRYY 
34nm SW 
150156Z 1502/1524 09005KT P6SM -RA SCT015 OVC025 FM150400 05004KT 5SM -RA BR SCT008 OVC015 FM151100 36005KT P6SM -RA SCT010 OVC030 FM151500 36007KT P6SM OVC030 FM152000 34007KT P6SM OVC040
KPDK 
35nm S 
150218Z 1502/1524 03005KT P6SM -RA OVC015 FM150400 03004KT 5SM -RA BR OVC010 TEMPO 1506/1510 3SM -RADZ BR OVC007 FM151100 35005KT 6SM -RADZ BR SCT005 OVC010 FM151500 35006KT P6SM -RA OVC015 FM152000 33006KT P6SM OVC035
KMGE 
37nm SW 
150230Z 1502/1604 06005KT 9000 -RA BR FEW009 BKN015 OVC020 QNH3020INS BECMG 1504/1505 03005KT 8000 -RA BR OVC009 QNH3015INS BECMG 1512/1513 32008KT 9999 NSW OVC012 QNH3012INS BECMG 1518/1519 32010G15KT 9999 OVC015 QNH3012INS BECMG 1521/1522 30008KT 9999 BKN018 QNH3012INS TX09/1520Z TN03/1512Z
NOTAMs
Click for the latest NOTAMs
NOTAMs are issued by the DoD/FAA and will open in a separate window not controlled by AirNav.

 

 
 

Would you like to see your business listed on this page?

 If your business provides an interesting product or service to pilots, flight crews, aircraft, or users of the Elliott Field Airport, you should consider listing it here.  To start the listing process, click on the button below
 
Add a business
 

Other Pages about Elliott Field Airport

Update a link
 
Copyright © AirNav, LLC. All rights reserved. Privacy Policy  Contact